Time;durP1;ratioP1;P1;durP2;ratioP2;P2;SDS_P1;SDS_P2;PMS_P1;PMS_P2;Temp;Humidity;BMP_temperature;BMP_pressure;BME280_temperature;BME280_humidity;BME280_pressure;Samples;Min_cycle;Max_cycle;Signal;HPM_P1;HPM_P2
2023/12/23 00:02:22;;;;;;;0.60;0.30;;;;;;;;;;5031887;28;20430;-68
2023/12/23 00:04:48;;;;;;;0.20;0.20;;;;;;;;;;5031774;28;20056;-68
2023/12/23 00:07:14;;;;;;;0.20;0.20;;;;;;;;;;5049890;28;20039;-70
2023/12/23 00:09:41;;;;;;;0.20;0.20;;;;;;;;;;5031963;28;20060;-69
2023/12/23 00:12:10;;;;;;;0.20;0.20;;;;;;;;;;5048080;28;20029;-68
2023/12/23 00:14:36;;;;;;;0.20;0.20;;;;;;;;;;5013182;28;20064;-69
2023/12/23 00:17:02;;;;;;;2.03;0.23;;;;;;;;;;5012013;28;20041;-67
2023/12/23 00:19:28;;;;;;;0.30;0.30;;;;;;;;;;5011654;28;20079;-68
2023/12/23 00:21:55;;;;;;;0.20;0.20;;;;;;;;;;5029801;28;20052;-68
2023/12/23 00:24:21;;;;;;;0.53;0.40;;;;;;;;;;5011752;28;20128;-68
2023/12/23 00:26:48;;;;;;;0.77;0.30;;;;;;;;;;5012524;28;20588;-70
2023/12/23 00:29:13;;;;;;;0.20;0.20;;;;;;;;;;5030394;28;20504;-67
2023/12/23 00:31:39;;;;;;;0.30;0.30;;;;;;;;;;4998491;28;20046;-70
2023/12/23 00:34:05;;;;;;;0.83;0.30;;;;;;;;;;5015581;28;20433;-68
2023/12/23 00:36:31;;;;;;;0.30;0.30;;;;;;;;;;5034479;28;20037;-68
2023/12/23 00:38:58;;;;;;;0.40;0.40;;;;;;;;;;5034036;28;20033;-68
2023/12/23 00:41:24;;;;;;;0.23;0.23;;;;;;;;;;5020411;28;20029;-67
2023/12/23 00:43:50;;;;;;;0.40;0.30;;;;;;;;;;5031734;28;20035;-67
2023/12/23 00:46:16;;;;;;;1.17;0.20;;;;;;;;;;5035843;28;20028;-67
2023/12/23 00:48:42;;;;;;;1.70;0.30;;;;;;;;;;5035806;28;20033;-68
2023/12/23 00:51:09;;;;;;;0.43;0.43;;;;;;;;;;5053509;28;20090;-69
2023/12/23 00:53:34;;;;;;;0.67;0.40;;;;;;;;;;5035185;28;20024;-68
2023/12/23 00:56:02;;;;;;;0.67;0.37;;;;;;;;;;5052809;28;20424;-69
2023/12/23 00:58:27;;;;;;;0.30;0.30;;;;;;;;;;5053249;28;20177;-69
2023/12/23 01:00:53;;;;;;;0.23;0.23;;;;;;;;;;5052943;28;20032;-67
2023/12/23 01:03:18;;;;;;;0.50;0.20;;;;;;;;;;5031208;28;20448;-68
2023/12/23 01:05:44;;;;;;;0.23;0.23;;;;;;;;;;5031441;28;20104;-69
2023/12/23 01:08:10;;;;;;;0.30;0.30;;;;;;;;;;5031643;28;20049;-68
2023/12/23 01:10:35;;;;;;;6.03;0.73;;;;;;;;;;5032771;28;20090;-67
2023/12/23 01:13:03;;;;;;;0.30;0.30;;;;;;;;;;5031531;28;20496;-68
2023/12/23 01:15:28;;;;;;;1.53;0.40;;;;;;;;;;5030689;28;20033;-70
2023/12/23 01:17:54;;;;;;;0.40;0.30;;;;;;;;;;5031869;28;20037;-69
2023/12/23 01:20:19;;;;;;;0.57;0.50;;;;;;;;;;5032608;28;20030;-68
2023/12/23 01:22:45;;;;;;;0.30;0.30;;;;;;;;;;5031298;28;20033;-69
2023/12/23 01:25:11;;;;;;;0.20;0.20;;;;;;;;;;5031233;28;20036;-68
2023/12/23 01:27:36;;;;;;;1.57;0.30;;;;;;;;;;5031267;28;20049;-67
2023/12/23 01:30:04;;;;;;;0.57;0.40;;;;;;;;;;5031367;28;20049;-68
2023/12/23 01:32:30;;;;;;;0.57;0.20;;;;;;;;;;5031212;28;20132;-68
2023/12/23 01:34:55;;;;;;;0.73;0.20;;;;;;;;;;5032645;28;20112;-68
2023/12/23 01:37:22;;;;;;;4.00;0.40;;;;;;;;;;5032371;28;20040;-69
2023/12/23 01:39:48;;;;;;;0.77;0.40;;;;;;;;;;5030946;28;20489;-68
2023/12/23 01:42:14;;;;;;;0.30;0.30;;;;;;;;;;5032655;28;20044;-69
2023/12/23 01:44:39;;;;;;;0.73;0.10;;;;;;;;;;5032426;28;20040;-71
2023/12/23 01:47:05;;;;;;;0.23;0.23;;;;;;;;;;5032367;28;20107;-69
2023/12/23 01:49:31;;;;;;;1.80;0.30;;;;;;;;;;5030867;28;20033;-67
2023/12/23 01:51:58;;;;;;;0.77;0.40;;;;;;;;;;5031969;28;20033;-68
2023/12/23 01:54:25;;;;;;;1.30;0.40;;;;;;;;;;5032148;28;20061;-68
2023/12/23 01:56:51;;;;;;;0.17;0.17;;;;;;;;;;5031018;28;20029;-68
2023/12/23 01:59:17;;;;;;;0.57;0.40;;;;;;;;;;5032303;28;20034;-69
2023/12/23 02:01:44;;;;;;;0.20;0.20;;;;;;;;;;5031771;28;20017;-68
2023/12/23 02:04:09;;;;;;;2.27;0.23;;;;;;;;;;5014288;28;20096;-68
2023/12/23 02:06:35;;;;;;;0.43;0.43;;;;;;;;;;5027157;28;20484;-67
2023/12/23 02:09:04;;;;;;;0.20;0.20;;;;;;;;;;5030775;28;20025;-68
2023/12/23 02:12:01;;;;;;;0.37;0.37;;;;;;;;;;5030380;28;20026;-68
2023/12/23 02:14:40;;;;;;;2.00;0.60;;;;;;;;;;5032369;28;20365;-69
2023/12/23 02:17:07;;;;;;;0.30;0.30;;;;;;;;;;5032162;28;20105;-69
2023/12/23 02:19:32;;;;;;;2.70;0.50;;;;;;;;;;5031616;28;20044;-68
2023/12/23 02:21:58;;;;;;;1.87;0.33;;;;;;;;;;5022575;28;20026;-67
2023/12/23 02:24:23;;;;;;;3.43;0.40;;;;;;;;;;5030557;28;20036;-69
2023/12/23 02:26:55;;;;;;;3.33;0.30;;;;;;;;;;5031961;28;20124;-69
2023/12/23 02:29:22;;;;;;;0.65;0.35;;;;;;;;;;5030372;28;20523;-70
2023/12/23 02:31:49;;;;;;;0.93;0.50;;;;;;;;;;5031947;28;20301;-69
2023/12/23 02:34:15;;;;;;;0.63;0.40;;;;;;;;;;5019381;28;20021;-68
2023/12/23 02:36:41;;;;;;;1.60;0.60;;;;;;;;;;5014555;28;20017;-69
2023/12/23 02:39:06;;;;;;;1.20;0.20;;;;;;;;;;5032628;28;20382;-69
2023/12/23 02:41:32;;;;;;;1.23;0.20;;;;;;;;;;5032445;28;20018;-70
2023/12/23 02:43:57;;;;;;;0.30;0.30;;;;;;;;;;5016360;28;20069;-68
2023/12/23 02:46:23;;;;;;;0.73;0.30;;;;;;;;;;5031597;28;20025;-68
2023/12/23 02:48:49;;;;;;;0.57;0.40;;;;;;;;;;5032425;28;20075;-68
2023/12/23 02:51:15;;;;;;;0.30;0.30;;;;;;;;;;5030248;28;20049;-69
2023/12/23 02:53:40;;;;;;;0.33;0.20;;;;;;;;;;5031024;28;20465;-68
2023/12/23 02:56:06;;;;;;;2.73;0.50;;;;;;;;;;5030004;28;20041;-68
2023/12/23 02:58:32;;;;;;;1.03;0.40;;;;;;;;;;5031265;28;20041;-70
2023/12/23 03:00:57;;;;;;;0.57;0.37;;;;;;;;;;5032661;28;20460;-69
2023/12/23 03:03:23;;;;;;;6.70;0.93;;;;;;;;;;5037773;28;20036;-68
2023/12/23 03:05:49;;;;;;;0.53;0.40;;;;;;;;;;5051088;28;20389;-68
2023/12/23 03:08:14;;;;;;;1.37;0.50;;;;;;;;;;5032605;28;20392;-68
2023/12/23 03:10:41;;;;;;;1.13;0.33;;;;;;;;;;5019675;28;20040;-67
2023/12/23 03:13:07;;;;;;;0.30;0.30;;;;;;;;;;5039197;28;20029;-68
2023/12/23 03:15:32;;;;;;;0.70;0.30;;;;;;;;;;5032990;28;20039;-69
2023/12/23 03:17:58;;;;;;;3.07;0.30;;;;;;;;;;5050532;28;20113;-69
2023/12/23 03:20:26;;;;;;;2.73;0.50;;;;;;;;;;5050730;28;20046;-68
2023/12/23 03:22:52;;;;;;;0.40;0.40;;;;;;;;;;5050453;28;20021;-67
2023/12/23 03:25:17;;;;;;;0.70;0.47;;;;;;;;;;5015150;28;20091;-68
2023/12/23 03:27:43;;;;;;;1.23;0.60;;;;;;;;;;5012630;28;20040;-69
2023/12/23 03:30:10;;;;;;;2.57;0.47;;;;;;;;;;5012657;28;20497;-67
2023/12/23 03:32:35;;;;;;;4.00;0.60;;;;;;;;;;5012171;28;20143;-68
2023/12/23 03:35:01;;;;;;;1.27;1.27;;;;;;;;;;5012435;28;20052;-67
2023/12/23 03:37:27;;;;;;;1.33;0.30;;;;;;;;;;5030147;28;20477;-68
2023/12/23 03:39:52;;;;;;;0.87;0.70;;;;;;;;;;5012747;28;20033;-70
2023/12/23 03:42:18;;;;;;;0.67;0.50;;;;;;;;;;5030390;28;20034;-67
2023/12/23 03:44:45;;;;;;;0.57;0.40;;;;;;;;;;5012288;28;20449;-66
2023/12/23 03:47:11;;;;;;;1.63;0.50;;;;;;;;;;5012396;28;20528;-68
2023/12/23 03:49:37;;;;;;;2.43;0.43;;;;;;;;;;5012091;28;20029;-68
2023/12/23 03:52:02;;;;;;;2.57;0.60;;;;;;;;;;5016045;28;20025;-68
2023/12/23 03:54:28;;;;;;;1.63;0.70;;;;;;;;;;5032523;28;20431;-68
2023/12/23 03:56:54;;;;;;;7.93;0.70;;;;;;;;;;5032412;28;20031;-69
2023/12/23 03:59:19;;;;;;;4.73;0.60;;;;;;;;;;5032508;28;20403;-68
2023/12/23 04:01:45;;;;;;;5.40;0.67;;;;;;;;;;5032253;28;20025;-68
2023/12/23 04:04:11;;;;;;;0.77;0.47;;;;;;;;;;5028859;28;20539;-68
2023/12/23 04:06:37;;;;;;;3.53;0.90;;;;;;;;;;5029887;28;20079;-67
2023/12/23 04:09:03;;;;;;;1.20;0.70;;;;;;;;;;5029088;28;20399;-68
2023/12/23 04:11:29;;;;;;;2.00;0.73;;;;;;;;;;5029746;28;20026;-70
2023/12/23 04:13:54;;;;;;;1.20;0.60;;;;;;;;;;5028748;28;20021;-67
2023/12/23 04:16:20;;;;;;;0.53;0.50;;;;;;;;;;5029775;28;20036;-69
2023/12/23 04:18:46;;;;;;;1.30;0.50;;;;;;;;;;5029105;28;20029;-69
2023/12/23 04:21:11;;;;;;;3.17;1.00;;;;;;;;;;5029865;28;20029;-68
2023/12/23 04:23:37;;;;;;;0.70;0.70;;;;;;;;;;5011859;28;20424;-68
2023/12/23 04:26:03;;;;;;;6.57;0.63;;;;;;;;;;5029772;28;20036;-67
2023/12/23 04:28:28;;;;;;;1.07;0.60;;;;;;;;;;5029566;28;20428;-69
2023/12/23 04:30:56;;;;;;;4.13;1.40;;;;;;;;;;5011571;28;20116;-69
2023/12/23 04:33:22;;;;;;;4.33;0.60;;;;;;;;;;5012005;28;20026;-67
2023/12/23 04:35:49;;;;;;;2.70;1.00;;;;;;;;;;5022404;28;20512;-68
2023/12/23 04:38:14;;;;;;;1.50;0.87;;;;;;;;;;5029671;28;20025;-67
2023/12/23 04:40:41;;;;;;;2.17;0.77;;;;;;;;;;5029715;28;20029;-69
2023/12/23 04:43:06;;;;;;;1.80;0.70;;;;;;;;;;5028781;28;20100;-68
2023/12/23 04:45:32;;;;;;;4.33;0.90;;;;;;;;;;5029480;28;20431;-70
2023/12/23 04:47:57;;;;;;;1.30;0.93;;;;;;;;;;5032224;28;20052;-69
2023/12/23 04:50:23;;;;;;;0.87;0.40;;;;;;;;;;5014746;28;20025;-69
2023/12/23 04:52:49;;;;;;;2.37;0.90;;;;;;;;;;5014287;28;20049;-68
2023/12/23 04:55:14;;;;;;;2.67;0.90;;;;;;;;;;5012771;28;20144;-69
2023/12/23 04:57:40;;;;;;;0.50;0.50;;;;;;;;;;5029829;28;20033;-68
2023/12/23 05:00:06;;;;;;;1.17;0.60;;;;;;;;;;5011672;28;20362;-68
2023/12/23 05:02:33;;;;;;;3.33;0.67;;;;;;;;;;5028915;28;20021;-68
2023/12/23 05:04:58;;;;;;;2.00;0.60;;;;;;;;;;5029230;28;20046;-68
2023/12/23 05:07:25;;;;;;;0.90;0.60;;;;;;;;;;5011729;28;20081;-69
2023/12/23 05:09:51;;;;;;;1.33;0.83;;;;;;;;;;5029159;28;20372;-69
2023/12/23 05:12:17;;;;;;;0.40;0.40;;;;;;;;;;5029385;28;20397;-68
2023/12/23 05:14:42;;;;;;;0.73;0.40;;;;;;;;;;5011344;28;20068;-68
2023/12/23 05:17:08;;;;;;;6.13;0.70;;;;;;;;;;5028933;28;20033;-67
2023/12/23 05:19:34;;;;;;;1.93;0.63;;;;;;;;;;5027947;28;20067;-67
2023/12/23 05:22:00;;;;;;;2.13;0.77;;;;;;;;;;5027843;28;20026;-68
2023/12/23 05:24:26;;;;;;;2.60;0.83;;;;;;;;;;5027695;28;20042;-68
2023/12/23 05:26:51;;;;;;;1.70;0.73;;;;;;;;;;5027570;28;20037;-69
2023/12/23 05:29:18;;;;;;;2.30;0.60;;;;;;;;;;5027732;28;20079;-69
2023/12/23 05:31:44;;;;;;;3.93;1.13;;;;;;;;;;5020870;28;20401;-68
2023/12/23 05:34:09;;;;;;;0.50;0.50;;;;;;;;;;5014747;28;20025;-67
2023/12/23 05:36:35;;;;;;;2.23;0.40;;;;;;;;;;5014684;28;20061;-69
2023/12/23 05:39:01;;;;;;;5.47;0.70;;;;;;;;;;5014701;28;20036;-69
2023/12/23 05:41:26;;;;;;;2.60;0.50;;;;;;;;;;5014642;28;20128;-67
2023/12/23 05:43:52;;;;;;;5.20;0.70;;;;;;;;;;5032318;28;20170;-67
2023/12/23 05:46:17;;;;;;;9.00;1.63;;;;;;;;;;5025931;28;20478;-67
2023/12/23 05:48:43;;;;;;;7.43;0.77;;;;;;;;;;5030907;28;20116;-67
2023/12/23 05:51:11;;;;;;;2.20;0.40;;;;;;;;;;5032349;28;20030;-69
2023/12/23 05:53:36;;;;;;;2.47;0.70;;;;;;;;;;5030425;28;20489;-71
2023/12/23 05:56:06;;;;;;;1.13;0.50;;;;;;;;;;5030799;28;20033;-69
2023/12/23 05:58:32;;;;;;;3.40;0.73;;;;;;;;;;5032257;28;20030;-68
2023/12/23 06:00:58;;;;;;;2.87;0.90;;;;;;;;;;5031836;28;20143;-67
2023/12/23 06:03:24;;;;;;;2.80;0.97;;;;;;;;;;5038640;28;20128;-68
2023/12/23 06:05:49;;;;;;;7.17;0.73;;;;;;;;;;5051881;28;20041;-68
2023/12/23 06:08:15;;;;;;;2.17;0.60;;;;;;;;;;5052113;28;20040;-68
2023/12/23 06:10:40;;;;;;;2.40;0.63;;;;;;;;;;5033881;28;20044;-69
2023/12/23 06:13:06;;;;;;;1.47;0.60;;;;;;;;;;5032262;28;20044;-68
2023/12/23 06:15:32;;;;;;;2.73;0.90;;;;;;;;;;5031951;28;20033;-69
2023/12/23 06:17:57;;;;;;;3.60;1.33;;;;;;;;;;5013545;28;20515;-67
2023/12/23 06:20:23;;;;;;;0.97;0.60;;;;;;;;;;5013951;28;20037;-71
2023/12/23 06:22:49;;;;;;;3.43;1.00;;;;;;;;;;5013855;28;20053;-69
2023/12/23 06:25:15;;;;;;;4.07;0.70;;;;;;;;;;4997513;28;20029;-69
2023/12/23 06:27:41;;;;;;;4.30;0.70;;;;;;;;;;5020240;28;20033;-69
2023/12/23 06:30:07;;;;;;;3.07;0.60;;;;;;;;;;5051980;28;20036;-68
2023/12/23 06:32:32;;;;;;;3.50;0.90;;;;;;;;;;5051673;28;20056;-68
2023/12/23 06:34:58;;;;;;;6.53;1.10;;;;;;;;;;5050429;28;20409;-69
2023/12/23 06:37:24;;;;;;;3.73;0.80;;;;;;;;;;5033714;28;20029;-68
2023/12/23 06:39:49;;;;;;;1.60;0.50;;;;;;;;;;5051275;28;20119;-68
2023/12/23 06:42:15;;;;;;;2.97;0.70;;;;;;;;;;5019558;28;20040;-69
2023/12/23 06:44:40;;;;;;;2.50;0.80;;;;;;;;;;5031236;28;20037;-69
2023/12/23 06:47:07;;;;;;;2.33;0.70;;;;;;;;;;5031473;28;20033;-67
2023/12/23 06:49:33;;;;;;;3.07;0.43;;;;;;;;;;5031824;28;20029;-69
2023/12/23 06:51:59;;;;;;;1.17;0.50;;;;;;;;;;5013379;28;20520;-68
2023/12/23 06:54:25;;;;;;;3.70;0.73;;;;;;;;;;5013807;28;20029;-69
2023/12/23 06:56:50;;;;;;;1.47;0.70;;;;;;;;;;5014123;28;20033;-68
2023/12/23 06:59:17;;;;;;;2.23;0.80;;;;;;;;;;5031329;28;20361;-67
2023/12/23 07:01:43;;;;;;;4.87;0.87;;;;;;;;;;5013424;28;20029;-68
2023/12/23 07:04:09;;;;;;;3.17;0.67;;;;;;;;;;5031256;28;20053;-74
2023/12/23 07:06:36;;;;;;;4.23;1.03;;;;;;;;;;5012685;28;20106;-74
2023/12/23 07:09:01;;;;;;;7.50;1.17;;;;;;;;;;5013284;28;20448;-73
2023/12/23 07:11:27;;;;;;;4.87;1.57;;;;;;;;;;5030124;28;20032;-72
2023/12/23 07:13:53;;;;;;;3.23;1.40;;;;;;;;;;5028813;28;20075;-74
2023/12/23 07:16:19;;;;;;;6.97;1.70;;;;;;;;;;5030500;28;20025;-72
2023/12/23 07:18:44;;;;;;;4.13;1.13;;;;;;;;;;5030435;28;20033;-74
2023/12/23 07:21:11;;;;;;;2.97;1.00;;;;;;;;;;5029252;28;20557;-73
2023/12/23 07:23:36;;;;;;;2.43;0.80;;;;;;;;;;5022022;28;20740;-74
2023/12/23 07:26:03;;;;;;;3.40;0.30;;;;;;;;;;5030141;28;20192;-73
2023/12/23 07:28:29;;;;;;;4.97;0.67;;;;;;;;;;5030357;28;20029;-74
2023/12/23 07:30:55;;;;;;;7.07;1.23;;;;;;;;;;4995805;28;20033;-74
2023/12/23 07:33:22;;;;;;;1.03;0.80;;;;;;;;;;5012306;28;20033;-74
2023/12/23 07:35:48;;;;;;;4.43;1.00;;;;;;;;;;5012238;28;20536;-75
2023/12/23 07:38:14;;;;;;;4.33;0.90;;;;;;;;;;5013517;28;20040;-71
2023/12/23 07:40:40;;;;;;;1.97;0.73;;;;;;;;;;5030599;28;20140;-74
2023/12/23 07:43:06;;;;;;;3.50;0.70;;;;;;;;;;5013005;28;20021;-74
2023/12/23 07:45:31;;;;;;;1.00;0.70;;;;;;;;;;5030260;28;20035;-74
2023/12/23 07:47:57;;;;;;;9.60;1.17;;;;;;;;;;5011546;28;20329;-72
2023/12/23 07:50:22;;;;;;;2.77;0.70;;;;;;;;;;5029475;28;20025;-74
2023/12/23 07:52:49;;;;;;;1.53;0.70;;;;;;;;;;5029448;28;20029;-72
2023/12/23 07:55:15;;;;;;;1.67;0.57;;;;;;;;;;5011865;28;20041;-75
2023/12/23 07:57:42;;;;;;;2.87;0.80;;;;;;;;;;5028633;28;20572;-73
2023/12/23 08:00:09;;;;;;;4.90;1.47;;;;;;;;;;5029657;28;20029;-73
2023/12/23 08:02:34;;;;;;;2.77;0.50;;;;;;;;;;5027927;28;20064;-76
2023/12/23 08:05:00;;;;;;;3.43;1.00;;;;;;;;;;5011443;28;20064;-74
2023/12/23 08:07:25;;;;;;;1.93;0.67;;;;;;;;;;5011579;28;20219;-73
2023/12/23 08:09:51;;;;;;;5.33;0.73;;;;;;;;;;5029217;28;20029;-74
2023/12/23 08:12:16;;;;;;;2.20;0.87;;;;;;;;;;5029826;28;20025;-74
2023/12/23 08:14:43;;;;;;;4.33;0.73;;;;;;;;;;5029425;28;20025;-72
2023/12/23 08:17:08;;;;;;;1.80;1.10;;;;;;;;;;5029638;28;20484;-76
2023/12/23 08:19:34;;;;;;;2.77;0.97;;;;;;;;;;5029560;28;20033;-73
2023/12/23 08:22:00;;;;;;;3.17;0.83;;;;;;;;;;5029247;28;20033;-73
2023/12/23 08:24:26;;;;;;;3.03;1.03;;;;;;;;;;5028868;28;20094;-74
2023/12/23 08:26:51;;;;;;;6.17;0.90;;;;;;;;;;5028995;28;20025;-75
2023/12/23 08:29:17;;;;;;;3.17;1.23;;;;;;;;;;5011455;28;20473;-73
2023/12/23 08:31:43;;;;;;;3.77;1.40;;;;;;;;;;5028714;28;20057;-73
2023/12/23 08:34:09;;;;;;;4.30;1.30;;;;;;;;;;5029186;28;20025;-74
2023/12/23 08:36:34;;;;;;;4.63;1.40;;;;;;;;;;5029044;28;20401;-74
2023/12/23 08:39:00;;;;;;;9.37;6.90;;;;;;;;;;5028756;28;20486;-74
2023/12/23 08:41:25;;;;;;;3.20;1.30;;;;;;;;;;5028904;28;20029;-73
2023/12/23 08:43:51;;;;;;;3.87;1.00;;;;;;;;;;5010845;28;20022;-73
2023/12/23 08:46:17;;;;;;;4.00;0.97;;;;;;;;;;5016006;28;20033;-74
2023/12/23 08:48:43;;;;;;;4.50;1.50;;;;;;;;;;5028746;28;20030;-72
2023/12/23 08:51:09;;;;;;;3.13;1.27;;;;;;;;;;5028717;28;20095;-75
2023/12/23 08:53:35;;;;;;;2.20;1.30;;;;;;;;;;5027479;28;20100;-75
2023/12/23 08:56:02;;;;;;;1.20;1.00;;;;;;;;;;5029060;28;20084;-73
2023/12/23 08:58:30;;;;;;;4.27;1.10;;;;;;;;;;5014839;28;20033;-75
2023/12/23 09:00:56;;;;;;;2.43;1.10;;;;;;;;;;5033901;28;20331;-74
2023/12/23 09:03:22;;;;;;;4.03;1.37;;;;;;;;;;5049289;28;20125;-73
2023/12/23 09:05:47;;;;;;;5.43;1.87;;;;;;;;;;5032327;28;20057;-75
2023/12/23 09:08:13;;;;;;;5.40;1.53;;;;;;;;;;5034011;28;20056;-75
2023/12/23 09:10:39;;;;;;;5.67;1.53;;;;;;;;;;5033552;28;20338;-76
2023/12/23 09:13:05;;;;;;;2.40;1.43;;;;;;;;;;5033517;28;20033;-76
2023/12/23 09:15:30;;;;;;;4.77;1.63;;;;;;;;;;5033186;28;20481;-74
2023/12/23 09:17:56;;;;;;;2.07;1.20;;;;;;;;;;5032707;28;20469;-73
2023/12/23 09:20:22;;;;;;;3.13;2.20;;;;;;;;;;5032775;28;20070;-74
2023/12/23 09:22:48;;;;;;;5.30;1.50;;;;;;;;;;5032262;28;20108;-72
2023/12/23 09:25:14;;;;;;;2.87;1.53;;;;;;;;;;5014692;28;20060;-73
2023/12/23 09:27:41;;;;;;;5.77;2.07;;;;;;;;;;5032410;28;20430;-73
2023/12/23 09:30:07;;;;;;;11.40;5.17;;;;;;;;;;5032215;28;20037;-73
2023/12/23 09:32:32;;;;;;;11.43;3.27;;;;;;;;;;5014316;28;20073;-72
2023/12/23 09:34:59;;;;;;;7.33;2.80;;;;;;;;;;5014312;28;20470;-75
2023/12/23 09:37:25;;;;;;;2.03;1.73;;;;;;;;;;5032034;28;20037;-76
2023/12/23 09:39:50;;;;;;;9.10;1.60;;;;;;;;;;5032342;28;20096;-73
2023/12/23 09:42:16;;;;;;;5.57;2.03;;;;;;;;;;5031024;28;20395;-74
2023/12/23 09:44:41;;;;;;;3.57;2.50;;;;;;;;;;5032602;28;20079;-75
2023/12/23 09:47:07;;;;;;;3.57;2.40;;;;;;;;;;5032544;28;20029;-76
2023/12/23 09:49:33;;;;;;;3.73;2.13;;;;;;;;;;5030763;28;20033;-74
2023/12/23 09:51:59;;;;;;;2.30;1.80;;;;;;;;;;5031506;28;20041;-75
2023/12/23 09:54:27;;;;;;;5.13;2.20;;;;;;;;;;5031987;28;20520;-76
2023/12/23 09:56:53;;;;;;;2.17;1.90;;;;;;;;;;5030119;28;20535;-76
2023/12/23 09:59:19;;;;;;;3.17;2.30;;;;;;;;;;5030611;28;20065;-75
2023/12/23 10:01:45;;;;;;;2.83;1.60;;;;;;;;;;5030525;28;20053;-75
2023/12/23 10:04:11;;;;;;;3.73;1.90;;;;;;;;;;5030451;28;20053;-76
2023/12/23 10:06:37;;;;;;;9.43;4.17;;;;;;;;;;5031523;28;20037;-74
2023/12/23 10:09:03;;;;;;;9.00;5.27;;;;;;;;;;5031877;28;20121;-71
2023/12/23 10:11:29;;;;;;;3.27;2.03;;;;;;;;;;5014091;28;20381;-74
2023/12/23 10:13:56;;;;;;;3.27;1.80;;;;;;;;;;5031470;28;20116;-76
2023/12/23 10:16:22;;;;;;;2.87;1.47;;;;;;;;;;5013206;28;20034;-74
2023/12/23 10:18:48;;;;;;;1.33;1.13;;;;;;;;;;5031287;28;20044;-74
2023/12/23 10:21:14;;;;;;;3.47;1.87;;;;;;;;;;5030036;28;20846;-75
2023/12/23 10:23:41;;;;;;;1.97;1.43;;;;;;;;;;5031768;28;20026;-74
2023/12/23 10:26:06;;;;;;;12.70;5.27;;;;;;;;;;5029730;28;20393;-76
2023/12/23 10:28:35;;;;;;;3.03;1.80;;;;;;;;;;5031502;28;20095;-76
2023/12/23 10:31:04;;;;;;;1.40;1.30;;;;;;;;;;5029859;28;20386;-75
2023/12/23 10:33:33;;;;;;;4.97;1.47;;;;;;;;;;5027776;28;20036;-75
2023/12/23 10:35:59;;;;;;;2.53;1.43;;;;;;;;;;5013039;28;20028;-75
2023/12/23 10:38:26;;;;;;;1.47;1.17;;;;;;;;;;5031471;28;20025;-74
2023/12/23 10:41:17;;;;;;;2.47;1.33;;;;;;;;;;5012868;28;20041;-72
2023/12/23 10:43:45;;;;;;;2.15;1.27;;;;;;;;;;5031156;28;20485;-71
2023/12/23 10:46:12;;;;;;;3.33;1.50;;;;;;;;;;5031173;28;20033;-73
2023/12/23 10:48:39;;;;;;;3.70;1.30;;;;;;;;;;5031290;28;20033;-71
2023/12/23 10:51:05;;;;;;;2.83;1.43;;;;;;;;;;5020585;28;20033;-75
2023/12/23 10:53:32;;;;;;;1.03;0.93;;;;;;;;;;5013251;28;20090;-74
2023/12/23 10:55:58;;;;;;;2.43;1.50;;;;;;;;;;5030907;28;20036;-72
2023/12/23 10:58:25;;;;;;;2.00;1.00;;;;;;;;;;5012988;28;20025;-74
2023/12/23 11:00:54;;;;;;;2.70;1.47;;;;;;;;;;5031011;28;20039;-74
2023/12/23 11:03:20;;;;;;;1.40;1.07;;;;;;;;;;5028353;28;20047;-73
2023/12/23 11:05:47;;;;;;;2.63;1.63;;;;;;;;;;5030905;28;20018;-74
2023/12/23 11:08:21;;;;;;;2.70;1.80;;;;;;;;;;5030530;28;20079;-74
2023/12/23 11:10:48;;;;;;;1.57;1.20;;;;;;;;;;5029527;28;20032;-74
2023/12/23 11:13:15;;;;;;;4.50;1.90;;;;;;;;;;5030212;28;20025;-72
2023/12/23 11:15:42;;;;;;;3.70;1.13;;;;;;;;;;5030595;28;20021;-73
2023/12/23 11:18:09;;;;;;;1.87;1.10;;;;;;;;;;5029693;28;20037;-73
2023/12/23 11:20:35;;;;;;;18.30;7.50;;;;;;;;;;5012714;28;20032;-72
2023/12/23 11:23:29;;;;;;;4.30;2.30;;;;;;;;;;5012427;28;20147;-71
2023/12/23 11:25:55;;;;;;;3.73;1.77;;;;;;;;;;5012568;28;20551;-72
2023/12/23 11:28:21;;;;;;;5.40;3.10;;;;;;;;;;5012079;28;20754;-74
2023/12/23 11:30:48;;;;;;;3.37;2.03;;;;;;;;;;5022727;28;20033;-74
2023/12/23 11:33:14;;;;;;;3.23;2.10;;;;;;;;;;5029769;28;20025;-74
2023/12/23 11:36:02;;;;;;;2.63;2.20;;;;;;;;;;5030206;28;20025;-75
2023/12/23 11:38:53;;;;;;;4.50;2.37;;;;;;;;;;5029006;28;20032;-73
2023/12/23 11:41:21;;;;;;;3.20;2.20;;;;;;;;;;5030134;28;20025;-73
2023/12/23 11:43:49;;;;;;;4.63;2.50;;;;;;;;;;5029792;28;20028;-74
2023/12/23 11:46:18;;;;;;;6.00;2.80;;;;;;;;;;5029569;28;20033;-73
2023/12/23 11:48:44;;;;;;;4.23;2.70;;;;;;;;;;4995504;28;20033;-73
2023/12/23 11:51:11;;;;;;;4.70;2.00;;;;;;;;;;5011789;28;20091;-72
2023/12/23 11:53:39;;;;;;;4.93;3.23;;;;;;;;;;5029778;28;20108;-74
2023/12/23 11:56:05;;;;;;;2.83;1.93;;;;;;;;;;5012236;28;20389;-75
2023/12/23 11:58:32;;;;;;;2.87;2.57;;;;;;;;;;5011916;28;20037;-73
2023/12/23 12:00:59;;;;;;;4.23;2.83;;;;;;;;;;5011976;28;20458;-75
2023/12/23 12:03:25;;;;;;;10.60;5.77;;;;;;;;;;5011750;28;20150;-73
2023/12/23 12:05:57;;;;;;;10.17;5.20;;;;;;;;;;5012000;28;20049;-73
2023/12/23 12:08:28;;;;;;;5.30;3.37;;;;;;;;;;5029705;28;20457;-74
2023/12/23 12:10:57;;;;;;;4.20;2.67;;;;;;;;;;5012717;28;20041;-74
2023/12/23 12:13:30;;;;;;;3.93;2.20;;;;;;;;;;5011594;28;20021;-74
2023/12/23 12:15:56;;;;;;;4.90;2.00;;;;;;;;;;5029453;28;20029;-74
2023/12/23 12:18:21;;;;;;;5.67;2.23;;;;;;;;;;5029692;28;20116;-76
2023/12/23 12:20:47;;;;;;;3.50;2.13;;;;;;;;;;5011619;28;20025;-75
2023/12/23 12:23:13;;;;;;;2.87;1.93;;;;;;;;;;5012432;28;20362;-75
2023/12/23 12:25:39;;;;;;;2.70;1.60;;;;;;;;;;5029141;28;20021;-74
2023/12/23 12:28:05;;;;;;;7.03;1.90;;;;;;;;;;5011594;28;20060;-73
2023/12/23 12:30:31;;;;;;;4.03;1.80;;;;;;;;;;5011836;28;20499;-75
2023/12/23 12:32:59;;;;;;;12.27;4.40;;;;;;;;;;5011505;28;20117;-73
2023/12/23 12:35:25;;;;;;;4.17;2.00;;;;;;;;;;5029746;28;20482;-74
2023/12/23 12:37:51;;;;;;;4.17;1.70;;;;;;;;;;5029126;28;20036;-74
2023/12/23 12:40:17;;;;;;;3.83;1.70;;;;;;;;;;5028166;28;20509;-74
2023/12/23 12:42:47;;;;;;;8.63;1.67;;;;;;;;;;5029393;28;20026;-75
2023/12/23 12:45:14;;;;;;;2.67;0.90;;;;;;;;;;5029331;28;20353;-74
2023/12/23 12:47:39;;;;;;;2.30;1.00;;;;;;;;;;5028333;28;20070;-74
2023/12/23 12:50:06;;;;;;;3.20;1.03;;;;;;;;;;5029082;28;20144;-70
2023/12/23 12:52:33;;;;;;;2.80;1.13;;;;;;;;;;5028824;28;20033;-76
2023/12/23 12:55:00;;;;;;;1.90;1.03;;;;;;;;;;5011224;28;20120;-69
2023/12/23 12:57:31;;;;;;;2.37;1.30;;;;;;;;;;5028749;28;20098;-74
2023/12/23 12:59:57;;;;;;;4.17;0.97;;;;;;;;;;5011377;28;20044;-74
2023/12/23 13:02:23;;;;;;;0.73;0.73;;;;;;;;;;5028773;28;20457;-72
2023/12/23 13:04:49;;;;;;;1.53;0.80;;;;;;;;;;5028907;28;20041;-74
2023/12/23 13:07:15;;;;;;;2.20;1.10;;;;;;;;;;5028973;28;20036;-74
2023/12/23 13:09:40;;;;;;;1.33;0.70;;;;;;;;;;5028606;28;20033;-73
2023/12/23 13:12:10;;;;;;;0.80;0.80;;;;;;;;;;5032865;28;20026;-71
2023/12/23 13:14:37;;;;;;;1.13;0.53;;;;;;;;;;5038051;28;20055;-74
2023/12/23 13:17:03;;;;;;;0.80;0.70;;;;;;;;;;5037610;28;20047;-76
2023/12/23 13:19:29;;;;;;;0.70;0.70;;;;;;;;;;5031021;28;20108;-73
2023/12/23 13:21:54;;;;;;;0.60;0.60;;;;;;;;;;5029848;28;20105;-73
2023/12/23 13:24:20;;;;;;;2.00;0.77;;;;;;;;;;5029002;28;20393;-72
2023/12/23 13:26:45;;;;;;;0.60;0.60;;;;;;;;;;5029367;28;20108;-73
2023/12/23 13:29:11;;;;;;;2.73;0.87;;;;;;;;;;5029048;28;20033;-73
2023/12/23 13:31:38;;;;;;;2.73;1.10;;;;;;;;;;5029005;28;20098;-75
2023/12/23 13:34:03;;;;;;;0.83;0.70;;;;;;;;;;5028334;28;20033;-74
2023/12/23 13:36:29;;;;;;;1.50;0.80;;;;;;;;;;5029610;28;20052;-74
2023/12/23 13:38:56;;;;;;;1.87;0.90;;;;;;;;;;5029045;28;20428;-73
2023/12/23 13:41:28;;;;;;;1.17;0.90;;;;;;;;;;5026995;28;20045;-71
2023/12/23 13:43:53;;;;;;;;;;;;;;;;;;5028300;28;20525;-73
2023/12/23 13:46:19;;;;;;;1.00;0.70;;;;;;;;;;5027268;28;19996;-73
2023/12/23 13:48:44;;;;;;;2.20;1.13;;;;;;;;;;5015149;28;20021;-73
2023/12/23 13:51:10;;;;;;;2.67;1.07;;;;;;;;;;5029422;28;20029;-73
2023/12/23 13:53:36;;;;;;;1.23;1.10;;;;;;;;;;5032182;28;20033;-73
2023/12/23 13:56:05;;;;;;;2.30;1.00;;;;;;;;;;5032255;28;20061;-75
2023/12/23 13:58:30;;;;;;;2.17;1.30;;;;;;;;;;5030898;28;20478;-75
2023/12/23 14:00:57;;;;;;;1.30;1.03;;;;;;;;;;5029551;28;20036;-75
2023/12/23 14:03:23;;;;;;;2.53;1.50;;;;;;;;;;5013531;28;20087;-73
2023/12/23 14:05:49;;;;;;;1.80;1.37;;;;;;;;;;5013956;28;20037;-74
2023/12/23 14:08:15;;;;;;;1.67;1.40;;;;;;;;;;5013641;28;20099;-73
2023/12/23 14:10:43;;;;;;;1.97;1.40;;;;;;;;;;5031991;28;20496;-73
2023/12/23 14:13:09;;;;;;;1.83;1.40;;;;;;;;;;5031666;28;20112;-73
2023/12/23 14:15:34;;;;;;;7.23;2.83;;;;;;;;;;5031747;28;20486;-74
2023/12/23 14:18:00;;;;;;;2.20;1.30;;;;;;;;;;5031296;28;20030;-75
2023/12/23 14:20:25;;;;;;;1.10;1.00;;;;;;;;;;5032749;28;20433;-74
2023/12/23 14:22:51;;;;;;;2.93;1.13;;;;;;;;;;5032218;28;20029;-73
2023/12/23 14:25:17;;;;;;;1.10;1.00;;;;;;;;;;5033288;28;20029;-74
2023/12/23 14:27:42;;;;;;;2.47;1.20;;;;;;;;;;5033171;28;20029;-73
2023/12/23 14:30:08;;;;;;;1.03;0.93;;;;;;;;;;5033569;28;20057;-75
2023/12/23 14:32:34;;;;;;;1.40;0.90;;;;;;;;;;5034265;28;20025;-73
2023/12/23 14:34:59;;;;;;;1.80;1.00;;;;;;;;;;5015240;28;20481;-73
2023/12/23 14:37:25;;;;;;;3.60;1.50;;;;;;;;;;5013850;28;20025;-72
2023/12/23 14:39:50;;;;;;;1.50;0.97;;;;;;;;;;5014373;28;20295;-72